createdAt,value
2023-04-18T00:10:58.459Z,98416.37
2023-04-18T00:31:01.078Z,98428.63
2023-04-18T00:51:03.787Z,98430.87
2023-04-18T01:11:06.417Z,98424.81
2023-04-18T01:31:09.140Z,98411.75
2023-04-18T01:51:11.818Z,98416.81
2023-04-18T02:11:14.442Z,98423.50
2023-04-18T02:31:17.210Z,98409.16
2023-04-18T02:51:21.308Z,98409.09
2023-04-18T03:11:23.977Z,98417.06
2023-04-18T03:31:26.803Z,98417.56
2023-04-18T03:51:29.460Z,98428.47
2023-04-18T04:11:32.109Z,98439.63
2023-04-18T04:31:34.814Z,98454.53
2023-04-18T04:51:37.584Z,98481.97
2023-04-18T05:11:40.194Z,98496.56
2023-04-18T05:31:42.824Z,98507.91
2023-04-18T05:51:45.449Z,98518.88
2023-04-18T06:11:48.147Z,98548.25
2023-04-18T06:31:51.947Z,98551.19
2023-04-18T06:51:54.602Z,98553.63
2023-04-18T07:11:57.303Z,98573.06
2023-04-18T07:32:00.469Z,98597.63
2023-04-18T07:52:03.438Z,98593.63
2023-04-18T08:12:06.072Z,98600.53
2023-04-18T08:32:08.815Z,98608.16
2023-04-18T08:52:11.459Z,98604.56
2023-04-18T09:12:15.770Z,98607.06
2023-04-18T09:32:18.957Z,98606.19
2023-04-18T09:52:22.139Z,98599.66
2023-04-18T10:12:25.668Z,98597.84
2023-04-18T10:32:28.811Z,98587.38
2023-04-18T10:52:31.722Z,98584.19
2023-04-18T11:12:34.672Z,98574.59
2023-04-18T11:32:38.993Z,98554.59
2023-04-18T11:52:41.716Z,98552.47
2023-04-18T12:12:44.384Z,98550.53
2023-04-18T12:32:47.276Z,98523.72
2023-04-18T12:52:50.043Z,98514.94
2023-04-18T13:12:52.817Z,98509.00
2023-04-18T13:32:56.405Z,98509.91
2023-04-18T13:52:59.083Z,98507.84
2023-04-18T14:13:02.098Z,98502.16
2023-04-18T14:33:05.265Z,98508.75
2023-04-18T14:53:08.099Z,98513.28
2023-04-18T15:13:10.859Z,98527.12
2023-04-18T15:33:14.270Z,98511.38
2023-04-18T15:53:17.463Z,98520.47
2023-04-18T16:13:20.296Z,98520.38
2023-04-18T16:33:26.245Z,98518.53
2023-04-18T16:53:29.344Z,98534.88
2023-04-18T17:13:32.855Z,98536.69
2023-04-18T17:33:35.681Z,98540.03
2023-04-18T17:53:40.127Z,98543.94
2023-04-18T18:13:43.768Z,98553.59
2023-04-18T18:33:47.389Z,98564.78
2023-04-18T18:53:50.001Z,98576.13
2023-04-18T19:13:53.524Z,98562.78
2023-04-18T19:33:56.309Z,98568.25
2023-04-18T19:53:59.137Z,98563.50
2023-04-18T20:14:02.352Z,98556.31
2023-04-18T20:34:05.183Z,98554.59
2023-04-18T20:54:08.463Z,98533.19
2023-04-18T21:14:11.407Z,98515.19
2023-04-18T21:34:14.555Z,98498.94
2023-04-18T21:54:17.513Z,98475.28
2023-04-18T22:14:21.366Z,98470.41
2023-04-18T22:34:27.203Z,98448.34
2023-04-18T22:54:32.216Z,98434.44
2023-04-18T23:14:36.524Z,98401.34
2023-04-18T23:34:39.176Z,98376.25
